sensor_id;sensor_type;location;lat;lon;timestamp;temperature;humidity
41722;DHT22;27407;24.142;-110.310;2024-02-15T00:02:22;24.20;99.90
41722;DHT22;27407;24.142;-110.310;2024-02-15T00:04:48;24.10;99.90
41722;DHT22;27407;24.142;-110.310;2024-02-15T00:07:15;24.00;99.90
41722;DHT22;27407;24.142;-110.310;2024-02-15T00:09:42;23.90;99.90
41722;DHT22;27407;24.142;-110.310;2024-02-15T00:12:09;23.80;99.90
41722;DHT22;27407;24.142;-110.310;2024-02-15T00:14:36;23.60;99.90
41722;DHT22;27407;24.142;-110.310;2024-02-15T00:17:04;23.60;99.90
41722;DHT22;27407;24.142;-110.310;2024-02-15T00:19:31;23.30;99.90
41722;DHT22;27407;24.142;-110.310;2024-02-15T00:21:57;23.10;99.90
41722;DHT22;27407;24.142;-110.310;2024-02-15T00:24:24;23.10;99.90
41722;DHT22;27407;24.142;-110.310;2024-02-15T00:26:51;22.90;99.90
41722;DHT22;27407;24.142;-110.310;2024-02-15T00:29:17;22.90;99.90
41722;DHT22;27407;24.142;-110.310;2024-02-15T00:31:44;22.80;99.90
41722;DHT22;27407;24.142;-110.310;2024-02-15T00:34:10;22.70;99.90
41722;DHT22;27407;24.142;-110.310;2024-02-15T00:36:37;22.80;99.90
41722;DHT22;27407;24.142;-110.310;2024-02-15T00:39:04;22.40;99.90
41722;DHT22;27407;24.142;-110.310;2024-02-15T00:41:32;22.30;99.90
41722;DHT22;27407;24.142;-110.310;2024-02-15T00:44:00;22.20;99.90
41722;DHT22;27407;24.142;-110.310;2024-02-15T00:46:26;22.20;99.90
41722;DHT22;27407;24.142;-110.310;2024-02-15T00:48:55;22.20;99.90
41722;DHT22;27407;24.142;-110.310;2024-02-15T00:51:22;22.10;99.90
41722;DHT22;27407;24.142;-110.310;2024-02-15T00:53:49;22.00;99.90
41722;DHT22;27407;24.142;-110.310;2024-02-15T00:56:15;21.80;99.90
41722;DHT22;27407;24.142;-110.310;2024-02-15T00:58:42;21.70;99.90
41722;DHT22;27407;24.142;-110.310;2024-02-15T01:01:08;21.60;99.90
41722;DHT22;27407;24.142;-110.310;2024-02-15T01:03:39;21.50;99.90
41722;DHT22;27407;24.142;-110.310;2024-02-15T01:06:06;21.40;99.90
41722;DHT22;27407;24.142;-110.310;2024-02-15T01:08:33;21.30;99.90
41722;DHT22;27407;24.142;-110.310;2024-02-15T01:11:00;21.30;99.90
41722;DHT22;27407;24.142;-110.310;2024-02-15T01:13:27;21.20;99.90
41722;DHT22;27407;24.142;-110.310;2024-02-15T01:15:53;21.20;99.90
41722;DHT22;27407;24.142;-110.310;2024-02-15T01:18:23;21.00;99.90
41722;DHT22;27407;24.142;-110.310;2024-02-15T01:20:51;21.00;99.90
41722;DHT22;27407;24.142;-110.310;2024-02-15T01:23:21;20.80;99.90
41722;DHT22;27407;24.142;-110.310;2024-02-15T01:25:53;20.80;99.90
41722;DHT22;27407;24.142;-110.310;2024-02-15T01:28:19;20.80;99.90
41722;DHT22;27407;24.142;-110.310;2024-02-15T01:30:46;20.80;99.90
41722;DHT22;27407;24.142;-110.310;2024-02-15T01:33:13;20.80;99.90
41722;DHT22;27407;24.142;-110.310;2024-02-15T01:35:40;20.70;99.90
41722;DHT22;27407;24.142;-110.310;2024-02-15T01:38:06;20.60;99.90
41722;DHT22;27407;24.142;-110.310;2024-02-15T01:40:33;20.60;99.90
41722;DHT22;27407;24.142;-110.310;2024-02-15T01:43:01;20.50;99.90
41722;DHT22;27407;24.142;-110.310;2024-02-15T01:45:27;20.50;99.90
41722;DHT22;27407;24.142;-110.310;2024-02-15T01:47:56;20.50;99.90
41722;DHT22;27407;24.142;-110.310;2024-02-15T01:50:24;20.40;99.90
41722;DHT22;27407;24.142;-110.310;2024-02-15T01:52:54;20.40;99.90
41722;DHT22;27407;24.142;-110.310;2024-02-15T01:55:21;20.40;99.90
41722;DHT22;27407;24.142;-110.310;2024-02-15T01:57:53;20.40;99.90
41722;DHT22;27407;24.142;-110.310;2024-02-15T02:00:23;20.30;99.90
41722;DHT22;27407;24.142;-110.310;2024-02-15T02:02:50;20.30;99.90
41722;DHT22;27407;24.142;-110.310;2024-02-15T02:05:20;20.30;99.90
41722;DHT22;27407;24.142;-110.310;2024-02-15T02:07:50;20.20;99.90
41722;DHT22;27407;24.142;-110.310;2024-02-15T02:10:16;20.20;99.90
41722;DHT22;27407;24.142;-110.310;2024-02-15T02:12:46;20.20;99.90
41722;DHT22;27407;24.142;-110.310;2024-02-15T02:15:12;20.20;99.90
41722;DHT22;27407;24.142;-110.310;2024-02-15T02:17:39;20.10;99.90
41722;DHT22;27407;24.142;-110.310;2024-02-15T02:20:07;20.20;99.90
41722;DHT22;27407;24.142;-110.310;2024-02-15T02:22:37;20.10;99.90
41722;DHT22;27407;24.142;-110.310;2024-02-15T02:25:13;20.00;99.90
41722;DHT22;27407;24.142;-110.310;2024-02-15T02:27:43;20.10;99.90
41722;DHT22;27407;24.142;-110.310;2024-02-15T02:30:15;20.30;99.90
41722;DHT22;27407;24.142;-110.310;2024-02-15T02:32:43;20.10;99.90
41722;DHT22;27407;24.142;-110.310;2024-02-15T02:35:10;20.10;99.90
41722;DHT22;27407;24.142;-110.310;2024-02-15T02:37:39;20.00;99.90
41722;DHT22;27407;24.142;-110.310;2024-02-15T02:40:06;20.00;99.90
41722;DHT22;27407;24.142;-110.310;2024-02-15T02:42:48;19.90;99.90
41722;DHT22;27407;24.142;-110.310;2024-02-15T02:45:15;19.90;99.90
41722;DHT22;27407;24.142;-110.310;2024-02-15T02:47:41;19.80;99.90
41722;DHT22;27407;24.142;-110.310;2024-02-15T02:50:08;19.80;99.90
41722;DHT22;27407;24.142;-110.310;2024-02-15T02:52:35;19.80;99.90
41722;DHT22;27407;24.142;-110.310;2024-02-15T02:55:05;19.80;99.90
41722;DHT22;27407;24.142;-110.310;2024-02-15T02:57:38;19.70;99.90
41722;DHT22;27407;24.142;-110.310;2024-02-15T03:00:10;19.70;99.90
41722;DHT22;27407;24.142;-110.310;2024-02-15T03:02:46;19.60;99.90
41722;DHT22;27407;24.142;-110.310;2024-02-15T03:05:13;19.50;99.90
41722;DHT22;27407;24.142;-110.310;2024-02-15T03:07:41;19.60;99.90
41722;DHT22;27407;24.142;-110.310;2024-02-15T03:10:08;19.50;99.90
41722;DHT22;27407;24.142;-110.310;2024-02-15T03:12:39;19.50;99.90
41722;DHT22;27407;24.142;-110.310;2024-02-15T03:15:07;19.50;99.90
41722;DHT22;27407;24.142;-110.310;2024-02-15T03:17:44;19.50;99.90
41722;DHT22;27407;24.142;-110.310;2024-02-15T03:20:11;19.50;99.90
41722;DHT22;27407;24.142;-110.310;2024-02-15T03:22:57;19.50;99.90
41722;DHT22;27407;24.142;-110.310;2024-02-15T03:25:25;19.40;99.90
41722;DHT22;27407;24.142;-110.310;2024-02-15T03:27:53;19.40;99.90
41722;DHT22;27407;24.142;-110.310;2024-02-15T03:30:30;19.40;99.90
41722;DHT22;27407;24.142;-110.310;2024-02-15T03:32:57;19.40;99.90
41722;DHT22;27407;24.142;-110.310;2024-02-15T03:35:26;19.30;99.90
41722;DHT22;27407;24.142;-110.310;2024-02-15T03:37:54;19.30;99.90
41722;DHT22;27407;24.142;-110.310;2024-02-15T03:40:22;19.30;99.90
41722;DHT22;27407;24.142;-110.310;2024-02-15T03:42:55;19.30;99.90
41722;DHT22;27407;24.142;-110.310;2024-02-15T03:45:22;19.30;99.90
41722;DHT22;27407;24.142;-110.310;2024-02-15T03:47:52;19.30;99.90
41722;DHT22;27407;24.142;-110.310;2024-02-15T03:50:18;19.20;99.90
41722;DHT22;27407;24.142;-110.310;2024-02-15T03:52:48;19.20;99.90
41722;DHT22;27407;24.142;-110.310;2024-02-15T03:55:14;19.10;99.90
41722;DHT22;27407;24.142;-110.310;2024-02-15T03:57:41;19.20;99.90
41722;DHT22;27407;24.142;-110.310;2024-02-15T04:00:12;19.10;99.90
41722;DHT22;27407;24.142;-110.310;2024-02-15T04:02:47;19.10;99.90
41722;DHT22;27407;24.142;-110.310;2024-02-15T04:05:16;19.00;99.90
41722;DHT22;27407;24.142;-110.310;2024-02-15T04:07:47;19.00;99.90
41722;DHT22;27407;24.142;-110.310;2024-02-15T04:10:14;19.00;99.90
41722;DHT22;27407;24.142;-110.310;2024-02-15T04:12:40;18.90;99.90
41722;DHT22;27407;24.142;-110.310;2024-02-15T04:15:10;18.80;99.90
41722;DHT22;27407;24.142;-110.310;2024-02-15T04:17:42;18.80;99.90
41722;DHT22;27407;24.142;-110.310;2024-02-15T04:20:11;18.80;99.90
41722;DHT22;27407;24.142;-110.310;2024-02-15T04:22:39;18.80;99.90
41722;DHT22;27407;24.142;-110.310;2024-02-15T04:25:08;18.80;99.90
41722;DHT22;27407;24.142;-110.310;2024-02-15T04:27:43;18.80;99.90
41722;DHT22;27407;24.142;-110.310;2024-02-15T04:30:10;18.90;99.90
41722;DHT22;27407;24.142;-110.310;2024-02-15T04:32:37;18.90;99.90
41722;DHT22;27407;24.142;-110.310;2024-02-15T04:35:04;18.90;99.90
41722;DHT22;27407;24.142;-110.310;2024-02-15T04:37:31;18.80;99.90
41722;DHT22;27407;24.142;-110.310;2024-02-15T04:39:58;18.80;99.90
41722;DHT22;27407;24.142;-110.310;2024-02-15T04:42:33;18.70;99.90
41722;DHT22;27407;24.142;-110.310;2024-02-15T04:45:01;18.70;99.90
41722;DHT22;27407;24.142;-110.310;2024-02-15T04:47:27;18.80;99.90
41722;DHT22;27407;24.142;-110.310;2024-02-15T04:49:55;18.60;99.90
41722;DHT22;27407;24.142;-110.310;2024-02-15T04:52:22;18.60;99.90
41722;DHT22;27407;24.142;-110.310;2024-02-15T04:54:49;18.60;99.90
41722;DHT22;27407;24.142;-110.310;2024-02-15T04:57:16;18.60;99.90
41722;DHT22;27407;24.142;-110.310;2024-02-15T04:59:43;18.60;99.90
41722;DHT22;27407;24.142;-110.310;2024-02-15T05:02:13;18.50;99.90
41722;DHT22;27407;24.142;-110.310;2024-02-15T05:04:40;18.50;99.90
41722;DHT22;27407;24.142;-110.310;2024-02-15T05:07:09;18.50;99.90
41722;DHT22;27407;24.142;-110.310;2024-02-15T05:09:36;18.60;99.90
41722;DHT22;27407;24.142;-110.310;2024-02-15T05:12:03;18.50;99.90
41722;DHT22;27407;24.142;-110.310;2024-02-15T05:14:30;18.50;99.90
41722;DHT22;27407;24.142;-110.310;2024-02-15T05:16:56;18.40;99.90
41722;DHT22;27407;24.142;-110.310;2024-02-15T05:19:23;18.30;99.90
41722;DHT22;27407;24.142;-110.310;2024-02-15T05:21:49;18.30;99.90
41722;DHT22;27407;24.142;-110.310;2024-02-15T05:24:17;18.20;99.90
41722;DHT22;27407;24.142;-110.310;2024-02-15T05:26:46;18.20;99.90
41722;DHT22;27407;24.142;-110.310;2024-02-15T05:35:25;18.10;99.90
41722;DHT22;27407;24.142;-110.310;2024-02-15T05:38:03;18.10;99.90
41722;DHT22;27407;24.142;-110.310;2024-02-15T05:40:33;18.10;99.90
41722;DHT22;27407;24.142;-110.310;2024-02-15T05:43:19;18.10;99.90
41722;DHT22;27407;24.142;-110.310;2024-02-15T05:45:57;18.10;99.90
41722;DHT22;27407;24.142;-110.310;2024-02-15T05:48:27;18.10;99.90
41722;DHT22;27407;24.142;-110.310;2024-02-15T05:50:55;18.10;99.90
41722;DHT22;27407;24.142;-110.310;2024-02-15T05:53:23;18.10;99.90
41722;DHT22;27407;24.142;-110.310;2024-02-15T05:55:50;18.10;99.90
41722;DHT22;27407;24.142;-110.310;2024-02-15T05:58:17;18.00;99.90
41722;DHT22;27407;24.142;-110.310;2024-02-15T06:00:44;18.00;99.90
41722;DHT22;27407;24.142;-110.310;2024-02-15T06:03:13;18.00;99.90
41722;DHT22;27407;24.142;-110.310;2024-02-15T06:05:40;18.00;99.90
41722;DHT22;27407;24.142;-110.310;2024-02-15T06:08:07;18.00;99.90
41722;DHT22;27407;24.142;-110.310;2024-02-15T06:10:34;17.90;99.90
41722;DHT22;27407;24.142;-110.310;2024-02-15T06:13:00;17.90;99.90
41722;DHT22;27407;24.142;-110.310;2024-02-15T06:15:27;17.90;99.90
41722;DHT22;27407;24.142;-110.310;2024-02-15T06:17:54;17.90;99.90
41722;DHT22;27407;24.142;-110.310;2024-02-15T06:20:20;17.80;99.90
41722;DHT22;27407;24.142;-110.310;2024-02-15T06:22:49;17.80;99.90
41722;DHT22;27407;24.142;-110.310;2024-02-15T06:25:15;17.90;99.90
41722;DHT22;27407;24.142;-110.310;2024-02-15T06:27:47;17.90;99.90
41722;DHT22;27407;24.142;-110.310;2024-02-15T06:30:14;17.90;99.90
41722;DHT22;27407;24.142;-110.310;2024-02-15T06:32:59;17.80;99.90
41722;DHT22;27407;24.142;-110.310;2024-02-15T06:35:44;17.80;99.90
41722;DHT22;27407;24.142;-110.310;2024-02-15T06:38:29;17.80;99.90
41722;DHT22;27407;24.142;-110.310;2024-02-15T06:41:14;17.80;99.90
41722;DHT22;27407;24.142;-110.310;2024-02-15T06:43:40;17.80;99.90
41722;DHT22;27407;24.142;-110.310;2024-02-15T06:46:07;17.80;99.90
41722;DHT22;27407;24.142;-110.310;2024-02-15T06:48:34;17.80;99.90
41722;DHT22;27407;24.142;-110.310;2024-02-15T06:51:01;17.70;99.90
41722;DHT22;27407;24.142;-110.310;2024-02-15T06:53:30;17.70;99.90
41722;DHT22;27407;24.142;-110.310;2024-02-15T06:55:59;17.60;99.90
41722;DHT22;27407;24.142;-110.310;2024-02-15T06:58:26;17.70;99.90
41722;DHT22;27407;24.142;-110.310;2024-02-15T07:00:53;17.70;99.90
41722;DHT22;27407;24.142;-110.310;2024-02-15T07:03:19;17.70;99.90
41722;DHT22;27407;24.142;-110.310;2024-02-15T07:05:48;17.70;99.90
41722;DHT22;27407;24.142;-110.310;2024-02-15T07:08:15;17.70;99.90
41722;DHT22;27407;24.142;-110.310;2024-02-15T07:10:42;17.70;99.90
41722;DHT22;27407;24.142;-110.310;2024-02-15T07:13:09;17.60;99.90
41722;DHT22;27407;24.142;-110.310;2024-02-15T07:15:36;17.60;99.90
41722;DHT22;27407;24.142;-110.310;2024-02-15T07:18:07;17.50;99.90
41722;DHT22;27407;24.142;-110.310;2024-02-15T07:20:34;17.60;99.90
41722;DHT22;27407;24.142;-110.310;2024-02-15T07:23:01;17.50;99.90
41722;DHT22;27407;24.142;-110.310;2024-02-15T07:25:28;17.50;99.90
41722;DHT22;27407;24.142;-110.310;2024-02-15T07:27:55;17.50;99.90
41722;DHT22;27407;24.142;-110.310;2024-02-15T07:30:22;17.40;99.90
41722;DHT22;27407;24.142;-110.310;2024-02-15T07:32:49;17.30;99.90
41722;DHT22;27407;24.142;-110.310;2024-02-15T07:35:16;17.30;99.90
41722;DHT22;27407;24.142;-110.310;2024-02-15T07:37:55;17.20;99.90
41722;DHT22;27407;24.142;-110.310;2024-02-15T07:40:24;17.10;99.90
41722;DHT22;27407;24.142;-110.310;2024-02-15T07:42:57;17.10;99.90
41722;DHT22;27407;24.142;-110.310;2024-02-15T07:45:24;17.10;99.90
41722;DHT22;27407;24.142;-110.310;2024-02-15T07:47:50;17.20;99.90
41722;DHT22;27407;24.142;-110.310;2024-02-15T07:50:18;17.20;99.90
41722;DHT22;27407;24.142;-110.310;2024-02-15T07:52:49;17.20;99.90
41722;DHT22;27407;24.142;-110.310;2024-02-15T07:55:15;17.10;99.90
41722;DHT22;27407;24.142;-110.310;2024-02-15T07:57:42;17.10;99.90
41722;DHT22;27407;24.142;-110.310;2024-02-15T08:00:09;17.10;99.90
41722;DHT22;27407;24.142;-110.310;2024-02-15T08:02:38;17.10;99.90
41722;DHT22;27407;24.142;-110.310;2024-02-15T08:05:11;17.10;99.90
41722;DHT22;27407;24.142;-110.310;2024-02-15T08:07:47;17.10;99.90
41722;DHT22;27407;24.142;-110.310;2024-02-15T08:10:15;17.10;99.90
41722;DHT22;27407;24.142;-110.310;2024-02-15T08:12:43;17.10;99.90
41722;DHT22;27407;24.142;-110.310;2024-02-15T08:15:11;17.10;99.90
41722;DHT22;27407;24.142;-110.310;2024-02-15T08:17:44;17.10;99.90
41722;DHT22;27407;24.142;-110.310;2024-02-15T08:20:15;17.10;99.90
41722;DHT22;27407;24.142;-110.310;2024-02-15T08:22:47;17.10;99.90
41722;DHT22;27407;24.142;-110.310;2024-02-15T08:25:14;17.00;99.90
41722;DHT22;27407;24.142;-110.310;2024-02-15T08:33:15;17.00;99.90
41722;DHT22;27407;24.142;-110.310;2024-02-15T08:36:23;16.90;99.90
41722;DHT22;27407;24.142;-110.310;2024-02-15T08:38:50;16.90;99.90
41722;DHT22;27407;24.142;-110.310;2024-02-15T08:41:17;16.90;99.90
41722;DHT22;27407;24.142;-110.310;2024-02-15T08:43:46;16.90;99.90
41722;DHT22;27407;24.142;-110.310;2024-02-15T08:46:14;16.90;99.90
41722;DHT22;27407;24.142;-110.310;2024-02-15T08:48:41;16.90;99.90
41722;DHT22;27407;24.142;-110.310;2024-02-15T08:51:07;16.90;99.90
41722;DHT22;27407;24.142;-110.310;2024-02-15T08:53:37;16.90;99.90
41722;DHT22;27407;24.142;-110.310;2024-02-15T08:56:07;16.90;99.90
41722;DHT22;27407;24.142;-110.310;2024-02-15T08:58:36;16.90;99.90
41722;DHT22;27407;24.142;-110.310;2024-02-15T09:01:04;16.80;99.90
41722;DHT22;27407;24.142;-110.310;2024-02-15T09:03:33;16.80;99.90
41722;DHT22;27407;24.142;-110.310;2024-02-15T09:06:00;16.80;99.90
41722;DHT22;27407;24.142;-110.310;2024-02-15T09:08:29;16.80;99.90
41722;DHT22;27407;24.142;-110.310;2024-02-15T09:10:56;16.70;99.90
41722;DHT22;27407;24.142;-110.310;2024-02-15T09:13:24;16.70;99.90
41722;DHT22;27407;24.142;-110.310;2024-02-15T09:15:50;16.70;99.90
41722;DHT22;27407;24.142;-110.310;2024-02-15T09:18:17;16.70;99.90
41722;DHT22;27407;24.142;-110.310;2024-02-15T09:20:46;16.80;99.90
41722;DHT22;27407;24.142;-110.310;2024-02-15T09:23:15;16.80;99.90
41722;DHT22;27407;24.142;-110.310;2024-02-15T09:25:42;16.80;99.90
41722;DHT22;27407;24.142;-110.310;2024-02-15T09:28:11;16.80;99.90
41722;DHT22;27407;24.142;-110.310;2024-02-15T09:30:39;16.80;99.90
41722;DHT22;27407;24.142;-110.310;2024-02-15T09:33:06;16.90;99.90
41722;DHT22;27407;24.142;-110.310;2024-02-15T09:35:32;16.90;99.90
41722;DHT22;27407;24.142;-110.310;2024-02-15T09:37:59;16.90;99.90
41722;DHT22;27407;24.142;-110.310;2024-02-15T09:40:26;16.90;99.90
41722;DHT22;27407;24.142;-110.310;2024-02-15T09:42:55;16.90;99.90
41722;DHT22;27407;24.142;-110.310;2024-02-15T09:45:21;16.90;99.90
41722;DHT22;27407;24.142;-110.310;2024-02-15T09:47:50;17.00;99.90
41722;DHT22;27407;24.142;-110.310;2024-02-15T09:50:19;16.90;99.90
41722;DHT22;27407;24.142;-110.310;2024-02-15T09:52:52;16.90;99.90
41722;DHT22;27407;24.142;-110.310;2024-02-15T09:55:20;16.90;99.90
41722;DHT22;27407;24.142;-110.310;2024-02-15T09:57:50;16.90;99.90
41722;DHT22;27407;24.142;-110.310;2024-02-15T10:00:17;16.90;99.90
41722;DHT22;27407;24.142;-110.310;2024-02-15T10:02:46;16.90;99.90
41722;DHT22;27407;24.142;-110.310;2024-02-15T10:05:13;16.90;99.90
41722;DHT22;27407;24.142;-110.310;2024-02-15T10:07:43;16.90;99.90
41722;DHT22;27407;24.142;-110.310;2024-02-15T10:10:23;16.90;99.90
41722;DHT22;27407;24.142;-110.310;2024-02-15T10:12:54;16.90;99.90
41722;DHT22;27407;24.142;-110.310;2024-02-15T10:15:30;16.90;99.90
41722;DHT22;27407;24.142;-110.310;2024-02-15T10:18:01;16.90;99.90
41722;DHT22;27407;24.142;-110.310;2024-02-15T10:20:28;16.90;99.90
41722;DHT22;27407;24.142;-110.310;2024-02-15T10:25:35;16.80;99.90
41722;DHT22;27407;24.142;-110.310;2024-02-15T10:28:06;16.80;99.90
41722;DHT22;27407;24.142;-110.310;2024-02-15T10:30:40;16.80;99.90
41722;DHT22;27407;24.142;-110.310;2024-02-15T10:33:18;16.80;99.90
41722;DHT22;27407;24.142;-110.310;2024-02-15T10:35:48;16.80;99.90
41722;DHT22;27407;24.142;-110.310;2024-02-15T10:38:15;16.70;99.90
41722;DHT22;27407;24.142;-110.310;2024-02-15T10:40:41;16.70;99.90
41722;DHT22;27407;24.142;-110.310;2024-02-15T10:43:09;16.60;99.90
41722;DHT22;27407;24.142;-110.310;2024-02-15T10:45:40;16.70;99.90
41722;DHT22;27407;24.142;-110.310;2024-02-15T10:48:13;16.70;99.90
41722;DHT22;27407;24.142;-110.310;2024-02-15T10:50:45;16.70;99.90
41722;DHT22;27407;24.142;-110.310;2024-02-15T10:53:21;16.70;99.90
41722;DHT22;27407;24.142;-110.310;2024-02-15T10:58:33;16.70;99.90
41722;DHT22;27407;24.142;-110.310;2024-02-15T11:01:06;16.70;99.90
41722;DHT22;27407;24.142;-110.310;2024-02-15T11:03:44;16.70;99.90
41722;DHT22;27407;24.142;-110.310;2024-02-15T11:06:15;16.70;99.90
41722;DHT22;27407;24.142;-110.310;2024-02-15T11:08:42;16.70;99.90
41722;DHT22;27407;24.142;-110.310;2024-02-15T11:11:10;16.70;99.90
41722;DHT22;27407;24.142;-110.310;2024-02-15T11:13:40;16.70;99.90
41722;DHT22;27407;24.142;-110.310;2024-02-15T11:16:08;16.70;99.90
41722;DHT22;27407;24.142;-110.310;2024-02-15T11:18:46;16.60;99.90
41722;DHT22;27407;24.142;-110.310;2024-02-15T11:21:55;16.60;99.90
41722;DHT22;27407;24.142;-110.310;2024-02-15T11:24:30;16.50;99.90
41722;DHT22;27407;24.142;-110.310;2024-02-15T11:27:03;16.50;99.90
41722;DHT22;27407;24.142;-110.310;2024-02-15T11:29:56;16.50;99.90
41722;DHT22;27407;24.142;-110.310;2024-02-15T11:32:43;16.50;99.90
41722;DHT22;27407;24.142;-110.310;2024-02-15T11:35:19;16.50;99.90
41722;DHT22;27407;24.142;-110.310;2024-02-15T11:37:49;16.60;99.90
41722;DHT22;27407;24.142;-110.310;2024-02-15T11:40:23;16.60;99.90
41722;DHT22;27407;24.142;-110.310;2024-02-15T11:42:59;16.60;99.90
41722;DHT22;27407;24.142;-110.310;2024-02-15T11:45:27;16.60;99.90
41722;DHT22;27407;24.142;-110.310;2024-02-15T11:48:03;16.50;99.90
41722;DHT22;27407;24.142;-110.310;2024-02-15T11:50:37;16.20;99.90
41722;DHT22;27407;24.142;-110.310;2024-02-15T11:53:07;16.20;99.90
41722;DHT22;27407;24.142;-110.310;2024-02-15T11:55:37;16.10;99.90
41722;DHT22;27407;24.142;-110.310;2024-02-15T11:58:08;16.10;99.90
41722;DHT22;27407;24.142;-110.310;2024-02-15T12:00:36;16.10;99.90
41722;DHT22;27407;24.142;-110.310;2024-02-15T12:03:21;16.10;99.90
41722;DHT22;27407;24.142;-110.310;2024-02-15T12:06:06;16.10;99.90
41722;DHT22;27407;24.142;-110.310;2024-02-15T12:08:53;16.10;99.90
41722;DHT22;27407;24.142;-110.310;2024-02-15T12:11:38;16.10;99.90
41722;DHT22;27407;24.142;-110.310;2024-02-15T12:14:23;16.10;99.90
41722;DHT22;27407;24.142;-110.310;2024-02-15T12:17:10;16.10;99.90
41722;DHT22;27407;24.142;-110.310;2024-02-15T12:19:57;16.10;99.90
41722;DHT22;27407;24.142;-110.310;2024-02-15T12:22:27;16.10;99.90
41722;DHT22;27407;24.142;-110.310;2024-02-15T12:25:03;16.10;99.90
41722;DHT22;27407;24.142;-110.310;2024-02-15T12:27:44;16.10;99.90
41722;DHT22;27407;24.142;-110.310;2024-02-15T12:30:17;16.10;99.90
41722;DHT22;27407;24.142;-110.310;2024-02-15T12:32:50;16.10;99.90
41722;DHT22;27407;24.142;-110.310;2024-02-15T12:35:19;16.10;99.90
41722;DHT22;27407;24.142;-110.310;2024-02-15T12:37:47;16.10;99.90
41722;DHT22;27407;24.142;-110.310;2024-02-15T12:40:15;16.10;99.90
41722;DHT22;27407;24.142;-110.310;2024-02-15T12:42:46;16.10;99.90
41722;DHT22;27407;24.142;-110.310;2024-02-15T12:45:20;15.90;99.90
41722;DHT22;27407;24.142;-110.310;2024-02-15T12:47:51;15.80;99.90
41722;DHT22;27407;24.142;-110.310;2024-02-15T12:50:19;15.70;99.90
41722;DHT22;27407;24.142;-110.310;2024-02-15T12:52:50;15.70;99.90
41722;DHT22;27407;24.142;-110.310;2024-02-15T12:55:23;15.70;99.90
41722;DHT22;27407;24.142;-110.310;2024-02-15T12:57:54;15.70;99.90
41722;DHT22;27407;24.142;-110.310;2024-02-15T13:00:27;15.70;99.90
41722;DHT22;27407;24.142;-110.310;2024-02-15T13:03:01;15.70;99.90
41722;DHT22;27407;24.142;-110.310;2024-02-15T13:05:30;15.70;99.90
41722;DHT22;27407;24.142;-110.310;2024-02-15T13:07:57;15.70;99.90
41722;DHT22;27407;24.142;-110.310;2024-02-15T13:10:24;15.70;99.90
41722;DHT22;27407;24.142;-110.310;2024-02-15T13:12:54;15.70;99.90
41722;DHT22;27407;24.142;-110.310;2024-02-15T13:15:22;15.60;99.90
41722;DHT22;27407;24.142;-110.310;2024-02-15T13:17:54;15.60;99.90
41722;DHT22;27407;24.142;-110.310;2024-02-15T13:20:22;15.60;99.90
41722;DHT22;27407;24.142;-110.310;2024-02-15T13:22:58;15.70;99.90
41722;DHT22;27407;24.142;-110.310;2024-02-15T13:25:34;15.70;99.90
41722;DHT22;27407;24.142;-110.310;2024-02-15T13:28:03;15.70;99.90
41722;DHT22;27407;24.142;-110.310;2024-02-15T13:30:30;15.60;99.90
41722;DHT22;27407;24.142;-110.310;2024-02-15T13:32:57;15.70;99.90
41722;DHT22;27407;24.142;-110.310;2024-02-15T13:35:24;15.70;99.90
41722;DHT22;27407;24.142;-110.310;2024-02-15T13:37:51;15.70;99.90
41722;DHT22;27407;24.142;-110.310;2024-02-15T13:40:26;15.70;99.90
41722;DHT22;27407;24.142;-110.310;2024-02-15T13:42:55;15.70;99.90
41722;DHT22;27407;24.142;-110.310;2024-02-15T13:45:40;15.70;99.90
41722;DHT22;27407;24.142;-110.310;2024-02-15T13:48:07;15.70;99.90
41722;DHT22;27407;24.142;-110.310;2024-02-15T13:50:35;15.70;99.90
41722;DHT22;27407;24.142;-110.310;2024-02-15T13:53:03;15.70;99.90
41722;DHT22;27407;24.142;-110.310;2024-02-15T13:55:30;15.80;99.90
41722;DHT22;27407;24.142;-110.310;2024-02-15T13:57:57;15.70;99.90
41722;DHT22;27407;24.142;-110.310;2024-02-15T14:00:24;15.80;99.90
41722;DHT22;27407;24.142;-110.310;2024-02-15T14:03:00;15.80;99.90
41722;DHT22;27407;24.142;-110.310;2024-02-15T14:05:29;15.80;99.90
41722;DHT22;27407;24.142;-110.310;2024-02-15T14:07:58;15.80;99.90
41722;DHT22;27407;24.142;-110.310;2024-02-15T14:10:34;15.80;99.90
41722;DHT22;27407;24.142;-110.310;2024-02-15T14:13:03;15.70;99.90
41722;DHT22;27407;24.142;-110.310;2024-02-15T14:15:35;15.70;99.90
41722;DHT22;27407;24.142;-110.310;2024-02-15T14:18:23;15.70;99.90
41722;DHT22;27407;24.142;-110.310;2024-02-15T14:20:50;15.80;99.90
41722;DHT22;27407;24.142;-110.310;2024-02-15T14:23:17;15.80;99.90
41722;DHT22;27407;24.142;-110.310;2024-02-15T14:25:44;15.80;99.90
41722;DHT22;27407;24.142;-110.310;2024-02-15T14:28:10;15.80;99.90
41722;DHT22;27407;24.142;-110.310;2024-02-15T14:30:39;15.90;99.90
41722;DHT22;27407;24.142;-110.310;2024-02-15T14:33:24;15.90;99.90
41722;DHT22;27407;24.142;-110.310;2024-02-15T14:35:52;15.90;99.90
41722;DHT22;27407;24.142;-110.310;2024-02-15T14:38:28;15.90;99.90
41722;DHT22;27407;24.142;-110.310;2024-02-15T14:40:55;16.00;99.90
41722;DHT22;27407;24.142;-110.310;2024-02-15T14:43:24;16.00;99.90
41722;DHT22;27407;24.142;-110.310;2024-02-15T14:45:51;16.00;99.90
41722;DHT22;27407;24.142;-110.310;2024-02-15T14:48:19;16.10;99.90
41722;DHT22;27407;24.142;-110.310;2024-02-15T14:50:46;16.10;99.90
41722;DHT22;27407;24.142;-110.310;2024-02-15T14:53:15;16.20;99.90
41722;DHT22;27407;24.142;-110.310;2024-02-15T14:55:41;16.30;99.90
41722;DHT22;27407;24.142;-110.310;2024-02-15T14:58:15;16.30;99.90
41722;DHT22;27407;24.142;-110.310;2024-02-15T15:00:45;16.40;99.90
41722;DHT22;27407;24.142;-110.310;2024-02-15T15:03:12;16.40;99.90
41722;DHT22;27407;24.142;-110.310;2024-02-15T15:05:40;16.40;99.90
41722;DHT22;27407;24.142;-110.310;2024-02-15T15:08:25;16.50;99.90
41722;DHT22;27407;24.142;-110.310;2024-02-15T15:11:10;16.60;99.90
41722;DHT22;27407;24.142;-110.310;2024-02-15T15:13:54;16.50;99.90
41722;DHT22;27407;24.142;-110.310;2024-02-15T15:16:22;16.60;99.90
41722;DHT22;27407;24.142;-110.310;2024-02-15T15:19:06;16.60;99.90
41722;DHT22;27407;24.142;-110.310;2024-02-15T15:21:34;16.60;99.90
41722;DHT22;27407;24.142;-110.310;2024-02-15T15:24:01;16.60;99.90